createdAt,value
2022-12-15T00:02:27.713Z,-7.90
2022-12-15T00:05:20.230Z,-7.90
2022-12-15T00:08:10.729Z,-7.80
2022-12-15T00:11:00.298Z,-7.80
2022-12-15T00:13:49.265Z,-7.80
2022-12-15T00:16:38.819Z,-7.80
2022-12-15T00:19:30.263Z,-7.80
2022-12-15T00:22:21.072Z,-7.80
2022-12-15T00:25:09.717Z,-7.80
2022-12-15T00:28:00.214Z,-7.80
2022-12-15T00:30:51.109Z,-7.80
2022-12-15T00:33:40.294Z,-7.70
2022-12-15T00:36:30.172Z,-7.70
2022-12-15T00:39:03.945Z,-7.80
2022-12-15T00:41:38.605Z,-7.80
2022-12-15T00:44:11.630Z,-7.80
2022-12-15T00:46:58.424Z,-7.80
2022-12-15T00:49:50.742Z,-7.90
2022-12-15T00:52:41.241Z,-7.90
2022-12-15T00:55:30.815Z,-8.00
2022-12-15T00:58:20.990Z,-8.10
2022-12-15T01:01:10.901Z,-8.10
2022-12-15T01:03:59.904Z,-8.20
2022-12-15T01:06:50.966Z,-8.30
2022-12-15T01:09:40.536Z,-8.40
2022-12-15T01:12:28.766Z,-8.40
2022-12-15T01:15:17.536Z,-8.40
2022-12-15T01:18:08.626Z,-8.40
2022-12-15T01:20:40.713Z,-8.50
2022-12-15T01:23:11.245Z,-8.60
2022-12-15T01:25:44.224Z,-8.60
2022-12-15T01:28:21.523Z,-8.70
2022-12-15T01:30:57.033Z,-8.80
2022-12-15T01:33:28.673Z,-8.80
2022-12-15T01:36:02.630Z,-8.90
2022-12-15T01:38:34.697Z,-9.00
2022-12-15T01:41:08.720Z,-9.00
2022-12-15T01:43:40.669Z,-9.10
2022-12-15T01:46:25.344Z,-9.10
2022-12-15T01:49:05.696Z,-9.10
2022-12-15T01:51:43.283Z,-9.10
2022-12-15T01:54:26.015Z,-9.00
2022-12-15T01:57:03.699Z,-9.00
2022-12-15T01:59:40.672Z,-8.90
2022-12-15T02:02:16.794Z,-8.90
2022-12-15T02:04:50.954Z,-8.90
2022-12-15T02:07:23.319Z,-9.00
2022-12-15T02:10:00.005Z,-9.00
2022-12-15T02:13:00.023Z,-9.10
2022-12-15T02:15:53.010Z,-9.20
2022-12-15T02:18:48.616Z,-9.10
2022-12-15T02:21:40.419Z,-9.10
2022-12-15T02:24:38.714Z,-9.10
2022-12-15T02:27:30.324Z,-9.00
2022-12-15T02:30:26.050Z,-9.00
2022-12-15T02:33:30.711Z,-9.00
2022-12-15T02:36:10.423Z,-8.90
2022-12-15T02:38:45.558Z,-8.90
2022-12-15T02:43:50.308Z,-8.90
2022-12-15T02:46:50.324Z,-8.90
2022-12-15T02:49:50.653Z,-9.00
2022-12-15T02:52:26.400Z,-9.00
2022-12-15T02:55:16.598Z,-9.10
2022-12-15T02:57:56.647Z,-9.10
2022-12-15T03:00:30.175Z,-9.10
2022-12-15T03:03:01.870Z,-9.10
2022-12-15T03:05:36.836Z,-9.10
2022-12-15T03:08:10.745Z,-9.10
2022-12-15T03:10:40.967Z,-9.20
2022-12-15T03:13:13.955Z,-9.20
2022-12-15T03:15:46.640Z,-9.20
2022-12-15T03:18:17.164Z,-9.30
2022-12-15T03:20:47.075Z,-9.30
2022-12-15T03:23:21.594Z,-9.30
2022-12-15T03:25:52.127Z,-9.30
2022-12-15T03:28:23.272Z,-9.30
2022-12-15T03:30:55.341Z,-9.20
2022-12-15T03:33:27.506Z,-9.30
2022-12-15T03:36:00.394Z,-9.30
2022-12-15T03:38:31.535Z,-9.30
2022-12-15T03:41:04.585Z,-9.30
2022-12-15T03:43:38.590Z,-9.30
2022-12-15T03:46:10.258Z,-9.30
2022-12-15T03:48:43.791Z,-9.30
2022-12-15T03:51:18.899Z,-9.30
2022-12-15T03:53:51.915Z,-9.20
2022-12-15T03:56:22.755Z,-9.20
2022-12-15T03:58:54.819Z,-9.30
2022-12-15T04:01:31.335Z,-9.30
2022-12-15T04:04:05.230Z,-9.20
2022-12-15T04:06:35.498Z,-9.30
2022-12-15T04:09:07.066Z,-9.30
2022-12-15T04:11:38.677Z,-9.30
2022-12-15T04:14:11.199Z,-9.30
2022-12-15T04:16:43.653Z,-9.30
2022-12-15T04:19:34.687Z,-9.30
2022-12-15T04:22:13.788Z,-9.40
2022-12-15T04:25:04.925Z,-9.50
2022-12-15T04:28:01.393Z,-9.50
2022-12-15T04:30:52.724Z,-9.60
2022-12-15T04:33:47.782Z,-9.60
2022-12-15T04:36:37.843Z,-9.70
2022-12-15T04:39:27.244Z,-9.80
2022-12-15T04:42:20.203Z,-9.90
2022-12-15T04:45:20.165Z,-9.90
2022-12-15T04:48:10.107Z,-9.90
2022-12-15T04:50:59.677Z,-10.00
2022-12-15T04:53:48.944Z,-10.00
2022-12-15T04:56:39.642Z,-10.10
2022-12-15T04:59:28.404Z,-10.10
2022-12-15T05:02:18.991Z,-10.10
2022-12-15T05:05:08.665Z,-10.20
2022-12-15T05:07:56.832Z,-10.30
2022-12-15T05:10:48.670Z,-10.20
2022-12-15T05:13:38.561Z,-10.20
2022-12-15T05:16:31.090Z,-10.20
2022-12-15T05:19:20.349Z,-10.30
2022-12-15T05:22:10.239Z,-10.40
2022-12-15T05:25:00.120Z,-10.40
2022-12-15T05:27:50.313Z,-10.30
2022-12-15T05:30:42.654Z,-10.30
2022-12-15T05:33:17.173Z,-10.30
2022-12-15T05:35:51.387Z,-10.40
2022-12-15T05:38:20.692Z,-10.50
2022-12-15T05:40:50.603Z,-10.60
2022-12-15T05:43:26.524Z,-10.70
2022-12-15T05:46:00.934Z,-10.70
2022-12-15T05:48:33.871Z,-10.60
2022-12-15T05:51:10.850Z,-10.70
2022-12-15T05:53:44.752Z,-10.70
2022-12-15T05:56:21.735Z,-10.70
2022-12-15T05:58:53.792Z,-10.70
2022-12-15T06:01:30.188Z,-10.90
2022-12-15T06:04:01.005Z,-10.80
2022-12-15T06:06:32.449Z,-10.70
2022-12-15T06:09:07.591Z,-10.80
2022-12-15T06:11:41.194Z,-10.70
2022-12-15T06:14:12.340Z,-10.70
2022-12-15T06:16:50.241Z,-10.70
2022-12-15T06:19:23.227Z,-10.60
2022-12-15T06:21:58.052Z,-10.60
2022-12-15T06:24:31.037Z,-10.60
2022-12-15T06:27:02.183Z,-10.50
2022-12-15T06:29:32.404Z,-10.40
2022-12-15T06:32:03.864Z,-10.40
2022-12-15T06:34:40.843Z,-10.50
2022-12-15T06:37:17.820Z,-10.60
2022-12-15T06:39:51.726Z,-10.50
2022-12-15T06:42:26.250Z,-10.40
2022-12-15T06:44:58.849Z,-10.30
2022-12-15T06:47:29.153Z,-10.30
2022-12-15T06:50:00.305Z,-10.30
2022-12-15T06:52:36.353Z,-10.30
2022-12-15T06:55:08.638Z,-10.40
2022-12-15T06:57:40.790Z,-10.50
2022-12-15T07:00:12.453Z,-10.40
2022-12-15T07:02:49.969Z,-10.40
2022-12-15T07:08:05.340Z,-10.50
2022-12-15T07:10:44.472Z,-10.50
2022-12-15T07:13:17.458Z,-10.50
2022-12-15T07:15:51.998Z,-10.50
2022-12-15T07:18:23.738Z,-10.60
2022-12-15T07:20:53.258Z,-10.70
2022-12-15T07:23:34.378Z,-10.70
2022-12-15T07:26:11.967Z,-10.70
2022-12-15T07:28:43.055Z,-10.70
2022-12-15T07:31:15.902Z,-10.60
2022-12-15T07:33:49.951Z,-10.60
2022-12-15T07:36:21.101Z,-10.50
2022-12-15T07:38:52.316Z,-10.40
2022-12-15T07:41:21.284Z,-10.40
2022-12-15T07:43:52.682Z,-10.30
2022-12-15T07:46:25.126Z,-10.30
2022-12-15T07:48:55.586Z,-10.40
2022-12-15T07:51:28.875Z,-10.40
2022-12-15T07:53:58.619Z,-10.40
2022-12-15T07:56:33.268Z,-10.30
2022-12-15T07:59:10.610Z,-10.20
2022-12-15T08:01:40.950Z,-10.10
2022-12-15T08:04:12.276Z,-10.10
2022-12-15T08:06:44.041Z,-10.00
2022-12-15T08:09:18.256Z,-10.00
2022-12-15T08:11:54.303Z,-9.90
2022-12-15T08:14:26.390Z,-9.80
2022-12-15T08:16:57.278Z,-9.80
2022-12-15T08:19:26.820Z,-9.80
2022-12-15T08:21:56.428Z,-9.70
2022-12-15T08:24:27.264Z,-9.60
2022-12-15T08:26:57.417Z,-9.50
2022-12-15T08:32:22.541Z,-9.40
2022-12-15T08:34:53.644Z,-9.30
2022-12-15T08:37:28.174Z,-9.30
2022-12-15T08:40:00.859Z,-9.20
2022-12-15T08:42:37.219Z,-9.20
2022-12-15T08:45:10.208Z,-9.10
2022-12-15T08:47:44.111Z,-9.10
2022-12-15T08:50:14.340Z,-9.00
2022-12-15T08:53:06.539Z,-8.90
2022-12-15T08:55:39.579Z,-8.90
2022-12-15T08:58:10.505Z,-8.80
2022-12-15T09:00:40.420Z,-8.80
2022-12-15T09:03:12.787Z,-8.80
2022-12-15T09:05:44.551Z,-8.70
2022-12-15T09:08:17.528Z,-8.60
2022-12-15T09:10:52.197Z,-8.50
2022-12-15T09:13:25.962Z,-8.40
2022-12-15T09:16:11.115Z,-8.40
2022-12-15T09:18:44.843Z,-8.30
2022-12-15T09:21:20.587Z,-8.30
2022-12-15T09:24:03.112Z,-8.20
2022-12-15T09:26:38.804Z,-8.20
2022-12-15T09:29:10.308Z,-8.10
2022-12-15T09:31:40.405Z,-8.00
2022-12-15T09:34:17.195Z,-8.00
2022-12-15T09:36:50.499Z,-7.90
2022-12-15T09:39:25.938Z,-7.90
2022-12-15T09:42:00.484Z,-7.90
2022-12-15T09:44:35.598Z,-7.80
2022-12-15T09:47:28.487Z,-7.70
2022-12-15T09:50:07.070Z,-7.70
2022-12-15T09:52:44.660Z,-7.60
2022-12-15T09:55:35.468Z,-7.50
2022-12-15T09:58:28.422Z,-7.50
2022-12-15T10:01:00.803Z,-7.40
2022-12-15T10:03:56.004Z,-7.30
2022-12-15T10:06:46.099Z,-7.20
2022-12-15T10:09:31.062Z,-7.10
2022-12-15T10:12:08.586Z,-7.00
2022-12-15T10:14:49.746Z,-6.90
2022-12-15T10:17:50.292Z,-6.90
2022-12-15T10:20:28.578Z,-6.90
2022-12-15T10:23:06.340Z,-6.80
2022-12-15T10:25:38.451Z,-6.80
2022-12-15T10:28:35.702Z,-6.80
2022-12-15T10:31:22.266Z,-6.80
2022-12-15T10:34:06.865Z,-6.70
2022-12-15T10:36:44.770Z,-6.70
2022-12-15T10:39:18.574Z,-6.60
2022-12-15T10:42:09.795Z,-6.70
2022-12-15T10:44:42.769Z,-6.60
2022-12-15T10:47:25.903Z,-6.50
2022-12-15T10:50:00.129Z,-6.60
2022-12-15T10:52:40.164Z,-6.60
2022-12-15T10:55:50.271Z,-6.60
2022-12-15T10:58:27.307Z,-6.60
2022-12-15T11:01:23.413Z,-6.60
2022-12-15T11:03:58.636Z,-6.70
2022-12-15T11:06:31.756Z,-6.80
2022-12-15T11:09:30.555Z,-6.80
2022-12-15T11:12:21.060Z,-6.80
2022-12-15T11:14:54.654Z,-6.70
2022-12-15T11:17:27.946Z,-6.70
2022-12-15T11:20:15.677Z,-6.70
2022-12-15T11:22:54.804Z,-6.70
2022-12-15T11:25:48.375Z,-6.70
2022-12-15T11:28:31.198Z,-6.70
2022-12-15T11:31:34.292Z,-6.70
2022-12-15T11:34:08.204Z,-6.70
2022-12-15T11:37:18.497Z,-6.80
2022-12-15T11:40:04.555Z,-6.80
2022-12-15T11:42:41.532Z,-6.80
2022-12-15T11:45:26.194Z,-6.70
2022-12-15T11:48:17.005Z,-6.80
2022-12-15T11:51:00.739Z,-6.80
2022-12-15T11:54:08.546Z,-6.90
2022-12-15T11:57:08.446Z,-6.90
2022-12-15T11:59:46.671Z,-6.90
2022-12-15T12:02:19.450Z,-7.00
2022-12-15T12:05:11.073Z,-7.00
2022-12-15T12:07:53.284Z,-7.00
2022-12-15T12:10:57.954Z,-7.10
2022-12-15T12:13:50.330Z,-7.20
2022-12-15T12:16:33.984Z,-7.10
2022-12-15T12:19:14.078Z,-7.10
2022-12-15T12:21:51.428Z,-7.10
2022-12-15T12:24:38.142Z,-7.10
2022-12-15T12:27:29.826Z,-7.10
2022-12-15T12:30:10.227Z,-7.20
2022-12-15T12:33:16.998Z,-7.10
2022-12-15T12:36:00.125Z,-7.20
2022-12-15T12:38:40.497Z,-7.20
2022-12-15T12:41:38.463Z,-7.30
2022-12-15T12:44:20.559Z,-7.40
2022-12-15T12:46:58.433Z,-7.50
2022-12-15T12:49:40.669Z,-7.60
2022-12-15T12:52:40.373Z,-7.80
2022-12-15T12:55:29.969Z,-7.90
2022-12-15T12:58:00.913Z,-8.10
2022-12-15T13:00:36.187Z,-8.20
2022-12-15T13:03:31.856Z,-8.20
2022-12-15T13:06:07.093Z,-8.30
2022-12-15T13:08:56.049Z,-8.40
2022-12-15T13:11:50.238Z,-8.50
2022-12-15T13:14:51.704Z,-8.60
2022-12-15T13:17:45.363Z,-8.60
2022-12-15T13:20:29.719Z,-8.70
2022-12-15T13:23:19.969Z,-8.70
2022-12-15T13:25:59.068Z,-8.80
2022-12-15T13:28:41.556Z,-8.90
2022-12-15T13:31:23.796Z,-9.00
2022-12-15T13:33:54.900Z,-9.10
2022-12-15T13:36:50.727Z,-9.20
2022-12-15T13:39:34.260Z,-9.30
2022-12-15T13:45:08.523Z,-9.50
2022-12-15T13:47:42.197Z,-9.60
2022-12-15T13:50:18.269Z,-9.70
2022-12-15T13:56:28.724Z,-9.80
2022-12-15T13:59:09.716Z,-9.80
2022-12-15T14:01:51.021Z,-10.00
2022-12-15T14:04:29.824Z,-10.00
2022-12-15T14:07:07.413Z,-10.10
2022-12-15T14:09:41.937Z,-10.30
2022-12-15T14:12:16.459Z,-10.30
2022-12-15T14:14:51.591Z,-10.40
2022-12-15T14:17:25.143Z,-10.40
2022-12-15T14:20:02.189Z,-10.50
2022-12-15T14:22:36.397Z,-10.50
2022-12-15T14:25:38.511Z,-10.50
2022-12-15T14:28:32.436Z,-10.60
2022-12-15T14:31:27.265Z,-10.60
2022-12-15T14:34:18.505Z,-10.60
2022-12-15T14:36:47.340Z,-10.70
2022-12-15T14:39:26.991Z,-10.80
2022-12-15T14:41:58.517Z,-10.90
2022-12-15T14:44:43.896Z,-10.90
2022-12-15T14:47:40.456Z,-11.00
2022-12-15T14:50:18.680Z,-11.00
2022-12-15T14:53:01.791Z,-11.00
2022-12-15T14:55:39.998Z,-11.10
2022-12-15T14:58:28.852Z,-11.20
2022-12-15T15:01:00.412Z,-11.30
2022-12-15T15:03:40.976Z,-11.40
2022-12-15T15:06:33.108Z,-11.40
2022-12-15T15:09:25.261Z,-11.40
2022-12-15T15:12:04.582Z,-11.40
2022-12-15T15:14:46.478Z,-11.20
2022-12-15T15:17:20.697Z,-11.20
2022-12-15T15:20:06.585Z,-11.30
2022-12-15T15:22:52.475Z,-11.20
2022-12-15T15:25:40.487Z,-11.20
2022-12-15T15:28:26.715Z,-11.10
2022-12-15T15:31:08.553Z,-11.00
2022-12-15T15:33:42.512Z,-10.80
2022-12-15T15:36:17.656Z,-10.70
2022-12-15T15:38:50.951Z,-10.60
2022-12-15T15:41:27.929Z,-10.30
2022-12-15T15:44:05.218Z,-10.20
2022-12-15T15:46:41.329Z,-10.00
2022-12-15T15:49:20.416Z,-9.90
2022-12-15T15:51:55.852Z,-9.90
2022-12-15T15:54:38.020Z,-9.70
2022-12-15T15:57:12.879Z,-9.60
2022-12-15T16:00:01.224Z,-9.40
2022-12-15T16:02:37.707Z,-9.30
2022-12-15T16:05:13.651Z,-9.20
2022-12-15T16:07:45.724Z,-9.00
2022-12-15T16:10:22.088Z,-9.00
2022-12-15T16:13:00.296Z,-8.90
2022-12-15T16:15:36.437Z,-8.90
2022-12-15T16:18:10.258Z,-8.80
2022-12-15T16:20:42.330Z,-8.80
2022-12-15T16:23:19.313Z,-8.80
2022-12-15T16:25:57.823Z,-8.80
2022-12-15T16:28:33.039Z,-8.80
2022-12-15T16:31:05.678Z,-8.70
2022-12-15T16:33:35.445Z,-8.70
2022-12-15T16:36:07.935Z,-8.70
2022-12-15T16:38:41.221Z,-8.60
2022-12-15T16:41:17.902Z,-8.50
2022-12-15T16:43:48.325Z,-8.50
2022-12-15T16:46:19.933Z,-8.50
2022-12-15T16:48:54.943Z,-8.50
2022-12-15T16:51:43.980Z,-8.40
2022-12-15T16:54:28.467Z,-8.40
2022-12-15T16:57:00.108Z,-8.40
2022-12-15T16:59:33.944Z,-8.40
2022-12-15T17:02:28.733Z,-8.30
2022-12-15T17:05:07.311Z,-8.30
2022-12-15T17:07:37.926Z,-8.20
2022-12-15T17:10:12.367Z,-8.20
2022-12-15T17:12:47.804Z,-8.20
2022-12-15T17:15:31.550Z,-8.10
2022-12-15T17:18:03.297Z,-8.10
2022-12-15T17:20:38.716Z,-8.10
2022-12-15T17:23:25.872Z,-8.10
2022-12-15T17:26:22.607Z,-8.10
2022-12-15T17:28:50.915Z,-8.10
2022-12-15T17:31:27.637Z,-8.10
2022-12-15T17:34:03.005Z,-8.10
2022-12-15T17:36:35.378Z,-8.10
2022-12-15T17:39:08.056Z,-8.10
2022-12-15T17:41:59.359Z,-8.10
2022-12-15T17:44:38.285Z,-8.10
2022-12-15T17:47:10.064Z,-8.10
2022-12-15T17:49:40.588Z,-8.10
2022-12-15T17:52:28.498Z,-8.00
2022-12-15T17:54:59.653Z,-8.00
2022-12-15T17:57:32.093Z,-8.00
2022-12-15T18:00:05.357Z,-8.00
2022-12-15T18:02:39.828Z,-8.00
2022-12-15T18:05:11.110Z,-8.00
2022-12-15T18:07:41.324Z,-7.90
2022-12-15T18:10:29.977Z,-8.00
2022-12-15T18:13:03.579Z,-8.00
2022-12-15T18:15:36.571Z,-8.00
2022-12-15T18:18:10.477Z,-8.00
2022-12-15T18:20:44.080Z,-8.00
2022-12-15T18:23:27.205Z,-8.00
2022-12-15T18:26:03.279Z,-7.90
2022-12-15T18:28:39.937Z,-7.90
2022-12-15T18:31:30.479Z,-7.90
2022-12-15T18:34:04.768Z,-7.90
2022-12-15T18:36:40.712Z,-7.80
2022-12-15T18:39:29.363Z,-7.80
2022-12-15T18:41:59.282Z,-7.80
2022-12-15T18:44:35.950Z,-7.80
2022-12-15T18:47:18.506Z,-7.70
2022-12-15T18:49:48.336Z,-7.70
2022-12-15T18:52:32.952Z,-7.80
2022-12-15T18:55:07.248Z,-7.80
2022-12-15T18:57:40.550Z,-7.80
2022-12-15T19:00:18.687Z,-7.80
2022-12-15T19:02:51.010Z,-7.80
2022-12-15T19:05:35.173Z,-7.70
2022-12-15T19:08:16.150Z,-7.80
2022-12-15T19:10:57.735Z,-7.70
2022-12-15T19:13:36.864Z,-7.70
2022-12-15T19:16:20.045Z,-7.70
2022-12-15T19:19:15.392Z,-7.80
2022-12-15T19:22:08.324Z,-7.80
2022-12-15T19:24:59.783Z,-7.80
2022-12-15T19:27:30.614Z,-7.80
2022-12-15T19:30:01.477Z,-7.80
2022-12-15T19:32:31.673Z,-7.80
2022-12-15T19:35:05.898Z,-7.70
2022-12-15T19:37:37.961Z,-7.80
2022-12-15T19:40:09.724Z,-7.80
2022-12-15T19:42:42.086Z,-7.80
2022-12-15T19:45:19.988Z,-7.70
2022-12-15T19:47:50.511Z,-7.70
2022-12-15T19:50:27.509Z,-7.70
2022-12-15T19:53:02.335Z,-7.70
2022-12-15T19:55:46.380Z,-7.70
2022-12-15T19:58:40.559Z,-7.80
2022-12-15T20:01:18.379Z,-7.80
2022-12-15T20:03:50.215Z,-7.80
2022-12-15T20:06:26.586Z,-7.80
2022-12-15T20:09:01.750Z,-7.80
2022-12-15T20:11:34.711Z,-7.70
2022-12-15T20:14:06.769Z,-7.70
2022-12-15T20:16:39.852Z,-7.70
2022-12-15T20:19:10.287Z,-7.70
2022-12-15T20:21:42.050Z,-7.70
2022-12-15T20:24:16.882Z,-7.70
2022-12-15T20:26:52.018Z,-7.70
2022-12-15T20:29:36.715Z,-7.70
2022-12-15T20:32:20.105Z,-7.70
2022-12-15T20:34:51.863Z,-7.70
2022-12-15T20:37:34.076Z,-7.60
2022-12-15T20:40:08.291Z,-7.60
2022-12-15T20:42:40.348Z,-7.60
2022-12-15T20:45:12.111Z,-7.60
2022-12-15T20:47:48.402Z,-7.60
2022-12-15T20:50:52.188Z,-7.60
2022-12-15T20:53:26.407Z,-7.60
2022-12-15T20:55:59.983Z,-7.60
2022-12-15T20:58:33.196Z,-7.60
2022-12-15T21:01:07.577Z,-7.60
2022-12-15T21:03:45.806Z,-7.60
2022-12-15T21:06:20.544Z,-7.70
2022-12-15T21:09:00.598Z,-7.70
2022-12-15T21:11:35.738Z,-7.80
2022-12-15T21:14:05.966Z,-7.80
2022-12-15T21:16:38.594Z,-7.90
2022-12-15T21:19:25.791Z,-7.90
2022-12-15T21:21:57.182Z,-7.90
2022-12-15T21:24:31.124Z,-7.90
2022-12-15T21:27:03.496Z,-8.00
2022-12-15T21:29:36.480Z,-7.90
2022-12-15T21:32:05.150Z,-7.90
2022-12-15T21:34:39.691Z,-7.90
2022-12-15T21:37:40.634Z,-7.90
2022-12-15T21:40:18.831Z,-7.90
2022-12-15T21:42:53.055Z,-7.80
2022-12-15T21:45:26.657Z,-7.80
2022-12-15T21:48:17.771Z,-7.80
2022-12-15T21:50:50.759Z,-7.70
2022-12-15T21:53:22.214Z,-7.70
2022-12-15T21:55:55.808Z,-7.70
2022-12-15T21:58:30.428Z,-7.70
2022-12-15T22:01:04.290Z,-7.70
2022-12-15T22:03:40.601Z,-7.70
2022-12-15T22:06:20.355Z,-7.70
2022-12-15T22:08:53.334Z,-7.70
2022-12-15T22:11:30.008Z,-7.70
2022-12-15T22:14:05.763Z,-7.60
2022-12-15T22:16:38.376Z,-7.60
2022-12-15T22:19:13.276Z,-7.60
2022-12-15T22:21:44.108Z,-7.60
2022-12-15T22:24:18.272Z,-7.60
2022-12-15T22:26:50.714Z,-7.60
2022-12-15T22:29:30.755Z,-7.20
2022-12-15T22:32:03.117Z,-7.50
2022-12-15T22:34:35.190Z,-7.50
2022-12-15T22:37:08.181Z,-7.50
2022-12-15T22:39:39.932Z,-7.50
2022-12-15T22:42:18.268Z,-7.70
2022-12-15T22:44:52.365Z,-7.50
2022-12-15T22:47:30.265Z,-7.60
2022-12-15T22:50:04.470Z,-7.60
2022-12-15T22:52:38.079Z,-7.60
2022-12-15T22:55:10.447Z,-7.60
2022-12-15T22:57:47.128Z,-7.70
2022-12-15T23:00:24.726Z,-7.70
2022-12-15T23:05:30.082Z,-7.80
2022-12-15T23:08:00.922Z,-7.80
2022-12-15T23:10:50.198Z,-7.90
2022-12-15T23:13:21.941Z,-7.90
2022-12-15T23:16:12.398Z,-7.90
2022-12-15T23:18:44.191Z,-7.90
2022-12-15T23:21:20.257Z,-8.00
2022-12-15T23:23:54.163Z,-8.00
2022-12-15T23:26:30.222Z,-8.00
2022-12-15T23:29:05.055Z,-8.10
2022-12-15T23:31:38.671Z,-8.10
2022-12-15T23:34:11.652Z,-8.10
2022-12-15T23:36:44.631Z,-8.10
2022-12-15T23:39:18.362Z,-8.20
2022-12-15T23:41:49.991Z,-8.20
2022-12-15T23:44:22.361Z,-8.20
2022-12-15T23:46:56.337Z,-8.20
2022-12-15T23:49:30.183Z,-8.20
2022-12-15T23:52:03.170Z,-8.20
2022-12-15T23:54:35.234Z,-8.20
2022-12-15T23:57:07.605Z,-8.20
2022-12-15T23:59:39.974Z,-8.20
